createdAt,value
2016-07-12T14:02:40.881Z,29.93
2016-07-12T14:03:38.459Z,30.32
2016-07-12T14:04:37.738Z,30.03
2016-07-12T14:05:37.717Z,30.82
2016-07-12T14:06:37.708Z,30.22
2016-07-12T14:07:38.061Z,30.32
2016-07-12T14:08:37.740Z,29.74
2016-07-12T14:09:37.806Z,29.44
2016-07-12T14:10:38.131Z,30.91
2016-07-12T14:11:38.666Z,30.03
2016-07-12T14:12:38.070Z,30.03
2016-07-12T14:13:37.790Z,30.62
2016-07-12T14:14:39.898Z,29.14
2016-07-12T14:15:37.811Z,30.52
2016-07-12T14:16:37.936Z,30.03
2016-07-12T14:17:38.155Z,30.73
2016-07-12T14:18:37.836Z,30.15
2016-07-12T14:19:37.851Z,29.94
2016-07-12T14:20:37.849Z,30.52
2016-07-12T14:21:39.815Z,30.52
2016-07-12T14:22:38.110Z,30.24
2016-07-12T14:23:39.432Z,29.94
2016-07-12T14:24:37.908Z,30.24
2016-07-12T14:25:39.486Z,30.04
2016-07-12T14:26:38.865Z,30.63
2016-07-12T14:27:37.922Z,29.94
2016-07-12T14:28:39.020Z,29.25
2016-07-12T14:29:40.215Z,30.34
2016-07-12T14:30:38.224Z,30.04
2016-07-12T14:31:38.566Z,30.24
2016-07-12T14:32:37.910Z,30.45
2016-07-12T14:33:40.053Z,30.35
2016-07-12T14:34:38.027Z,30.06
2016-07-12T14:35:37.954Z,29.17
2016-07-12T14:36:38.244Z,30.16
2016-07-12T14:37:37.971Z,30.16
2016-07-12T14:38:38.003Z,30.24
2016-07-12T14:39:38.115Z,30.44
2016-07-12T14:40:38.076Z,30.54
2016-07-12T14:41:39.247Z,30.04
2016-07-12T14:42:38.167Z,30.44
2016-07-12T14:43:38.163Z,30.15
2016-07-12T14:44:38.096Z,30.44
2016-07-12T14:45:38.183Z,30.04
2016-07-12T14:46:37.954Z,29.85
2016-07-12T14:47:38.478Z,29.94
2016-07-12T14:48:39.097Z,30.54
2016-07-12T14:49:38.377Z,30.55
2016-07-12T14:50:38.342Z,30.06
2016-07-12T14:51:38.144Z,30.75
2016-07-12T14:52:38.415Z,29.47
2016-07-12T14:53:38.359Z,30.06
2016-07-12T14:54:38.644Z,30.26
2016-07-12T14:55:38.435Z,30.16
2016-07-12T14:56:38.274Z,29.66
2016-07-12T14:57:38.190Z,29.47
2016-07-12T14:58:38.221Z,30.26
2016-07-12T14:59:38.332Z,30.26
2016-07-12T15:00:38.327Z,30.35
2016-07-12T15:01:38.339Z,31.04
2016-07-12T15:02:38.477Z,30.45
2016-07-12T15:03:53.410Z,31.24
2016-07-12T15:04:39.095Z,30.44
2016-07-12T15:05:39.902Z,30.34
2016-07-12T15:06:39.025Z,30.65
2016-07-12T15:07:38.462Z,30.54
2016-07-12T15:08:38.678Z,30.44
2016-07-12T15:09:38.466Z,30.73
2016-07-12T15:10:38.479Z,30.73
2016-07-12T15:11:38.587Z,31.32
2016-07-12T15:12:38.479Z,30.54
2016-07-12T15:13:39.055Z,31.23
2016-07-12T15:14:38.612Z,30.73
2016-07-12T15:15:38.514Z,31.23
2016-07-12T15:16:38.554Z,30.72
2016-07-12T15:17:38.539Z,30.44
2016-07-12T15:18:38.491Z,30.83
2016-07-12T15:19:38.578Z,29.94
2016-07-12T15:20:38.797Z,30.43
2016-07-12T15:21:38.625Z,31.01
2016-07-12T15:22:38.648Z,30.72
2016-07-12T15:23:38.636Z,30.82
2016-07-12T15:24:38.654Z,31.21
2016-07-12T15:25:38.688Z,30.22
2016-07-12T15:26:38.679Z,30.91
2016-07-12T15:27:42.567Z,30.91
2016-07-12T15:28:38.678Z,30.32
2016-07-12T15:29:38.716Z,31.31
2016-07-12T15:30:38.702Z,31.1
2016-07-12T15:31:38.713Z,31.01
2016-07-12T15:32:38.752Z,30.71
2016-07-12T15:33:38.768Z,31
2016-07-12T15:34:38.773Z,31.1
2016-07-12T15:35:38.769Z,30.8
2016-07-12T15:36:38.821Z,31.88
2016-07-12T15:37:38.831Z,31.1
2016-07-12T15:38:38.824Z,31.98
2016-07-12T15:39:38.819Z,31.49
2016-07-12T15:40:38.849Z,31.79
2016-07-12T15:41:38.836Z,31
2016-07-12T15:42:38.851Z,30.88
2016-07-12T15:43:39.650Z,31.09
2016-07-12T15:44:38.896Z,31.2
2016-07-12T15:45:38.889Z,31.28
2016-07-12T15:46:38.918Z,31.48
2016-07-12T15:47:38.958Z,31.57
2016-07-12T15:48:38.929Z,31.18
2016-07-12T15:49:38.957Z,30.41
2016-07-12T15:50:38.987Z,31.57
2016-07-12T15:51:39.729Z,31.28
2016-07-12T15:52:38.994Z,31.28
2016-07-12T15:53:39.182Z,31.57
2016-07-12T15:54:39.190Z,31.77
2016-07-12T15:55:39.372Z,31.09
2016-07-12T15:56:39.357Z,31.28
2016-07-12T15:57:39.564Z,31.77
2016-07-12T15:58:40.263Z,31.36
2016-07-12T15:59:39.524Z,31.46
2016-07-12T16:00:39.446Z,31.16
2016-07-12T16:01:39.398Z,32.24
2016-07-12T16:02:40.669Z,30.68
2016-07-12T16:03:39.025Z,30.68
2016-07-12T16:04:39.353Z,30.38
2016-07-12T16:05:39.708Z,30.77
2016-07-12T16:06:39.826Z,30.68
2016-07-12T16:07:39.172Z,30.77
2016-07-12T16:08:39.210Z,31.95
2016-07-12T16:09:39.304Z,31.56
2016-07-12T16:10:41.330Z,31.35
2016-07-12T16:11:39.279Z,31.15
2016-07-12T16:12:39.286Z,31.15
2016-07-12T16:13:39.367Z,31.15
2016-07-12T16:14:39.285Z,31.25
2016-07-12T16:15:39.939Z,31.15
2016-07-12T16:16:39.272Z,30.85
2016-07-12T16:17:39.291Z,31.25
2016-07-12T16:18:39.453Z,31.05
2016-07-12T16:19:40.091Z,31.35
2016-07-12T16:20:40.066Z,31.15
2016-07-12T16:21:40.720Z,30.66
2016-07-12T16:22:39.350Z,31.13
2016-07-12T16:23:39.415Z,30.84
2016-07-12T16:24:40.295Z,31.13
2016-07-12T16:25:39.441Z,30.84
2016-07-12T16:26:39.525Z,31.13
2016-07-12T16:27:39.412Z,31.92
2016-07-12T16:28:39.429Z,30.74
2016-07-12T16:31:11.542Z,30.84
2016-07-12T18:12:19.733Z,33.2
2016-07-12T18:13:20.496Z,33.01
2016-07-12T18:14:20.575Z,33.11
2016-07-12T18:15:21.279Z,33.69
2016-07-12T18:16:20.842Z,33.5
2016-07-12T18:17:19.765Z,33.5
2016-07-12T18:18:19.771Z,33.89
2016-07-12T18:19:19.777Z,33.58
2016-07-12T18:20:19.788Z,34.36
2016-07-12T18:21:19.669Z,34.18
2016-07-12T18:22:19.795Z,33.97
2016-07-12T18:23:19.704Z,34.16
2016-07-12T18:24:19.836Z,33.97
2016-07-12T18:25:19.797Z,34.26
2016-07-12T18:26:20.001Z,34.45
2016-07-12T18:27:33.644Z,34.36
2016-07-12T18:28:20.215Z,34.55
2016-07-12T18:29:21.229Z,35.04
2016-07-12T18:30:20.370Z,34.36
2016-07-12T18:31:20.601Z,34.65
2016-07-12T18:32:20.088Z,34.65
2016-07-12T18:33:20.327Z,34.65
2016-07-12T18:34:19.896Z,34.65
2016-07-12T18:35:19.896Z,34.75
2016-07-12T19:48:00.373Z,36.12
2016-07-12T19:49:00.270Z,35.91
2016-07-12T19:49:59.576Z,36.1
2016-07-12T19:50:59.562Z,36.4
2016-07-12T19:51:59.486Z,36.69
2016-07-12T19:52:59.560Z,36.4
2016-07-12T19:53:59.564Z,36.1
2016-07-12T19:54:59.648Z,36.2
2016-07-12T19:55:59.578Z,36
2016-07-12T19:56:59.582Z,36.2
2016-07-12T19:57:59.584Z,36.2
2016-07-12T19:58:59.489Z,35.91
2016-07-12T19:59:59.617Z,36.3
2016-07-12T20:01:00.317Z,36.59
2016-07-12T20:01:59.582Z,36.3
2016-07-12T20:02:59.638Z,36.69
2016-07-12T20:03:59.522Z,36.69
2016-07-12T20:04:59.649Z,36.2
2016-07-12T20:05:59.632Z,36.4
2016-07-12T20:06:59.640Z,36.49
2016-07-12T20:07:59.650Z,37.56
2016-07-12T20:08:59.663Z,37.18
2016-07-12T20:09:59.664Z,37.27
2016-07-12T20:10:59.547Z,37.46
2016-07-12T20:12:35.635Z,37.08
2016-07-12T20:13:35.644Z,37.08
2016-07-12T20:14:35.697Z,37.27
2016-07-12T20:15:35.678Z,37.18
2016-07-12T20:16:35.710Z,37.46
2016-07-12T20:17:35.699Z,37.85
2016-07-12T20:18:35.701Z,38.34
2016-07-12T20:19:35.706Z,38.34
2016-07-12T20:20:35.712Z,38.44
2016-07-12T20:21:35.720Z,38.15
2016-07-12T20:22:35.724Z,38.73
2016-07-12T20:23:36.468Z,38.93
2016-07-12T20:24:35.760Z,38.83
2016-07-12T20:25:35.726Z,38.73
2016-07-12T20:26:35.726Z,38.83
2016-07-12T20:27:35.780Z,38.73
2016-07-12T20:28:35.762Z,38.73
2016-07-12T20:29:35.795Z,38.54
2016-07-12T20:30:36.515Z,38.73
2016-07-12T20:31:35.784Z,39.03
2016-07-12T20:32:35.788Z,39.1
2016-07-12T20:33:35.792Z,38.71
2016-07-12T20:34:35.804Z,38.81
2016-07-12T20:35:35.788Z,38.91
2016-07-12T20:36:35.812Z,38.52
2016-07-12T20:37:35.821Z,39
2016-07-12T20:38:35.803Z,38.62
2016-07-12T20:39:35.813Z,39.12
2016-07-12T20:40:35.818Z,39.1
2016-07-12T20:41:35.869Z,38.62
2016-07-12T20:42:35.821Z,38.62
2016-07-12T20:43:35.836Z,39.2
2016-07-12T20:44:35.886Z,39.2
2016-07-12T20:45:35.890Z,39.59
2016-07-12T20:46:35.909Z,39.98
2016-07-12T20:47:35.883Z,40.47
2016-07-12T20:48:36.013Z,41.14
2016-07-12T20:49:35.896Z,40.56
2016-07-12T20:50:35.926Z,40.78
2016-07-12T20:51:35.912Z,41.14
2016-07-12T20:52:35.893Z,41.05
2016-07-12T20:53:35.940Z,40.95
2016-07-12T20:54:35.912Z,41.05
2016-07-12T20:55:35.927Z,41.05
2016-07-12T20:56:35.920Z,41.05
2016-07-12T20:57:35.944Z,41.14
2016-07-12T20:58:35.968Z,41.05
2016-07-12T20:59:35.956Z,40.95
2016-07-12T21:00:36.678Z,40.95
2016-07-12T21:01:35.945Z,41.05
2016-07-12T21:02:35.974Z,41.14
2016-07-12T21:04:21.514Z,41.05
2016-07-12T21:05:21.522Z,40.95
2016-07-12T21:06:21.575Z,40.95
2016-07-12T21:08:11.613Z,41.34
2016-07-12T21:09:11.619Z,41.22
2016-07-12T21:10:11.669Z,42.19
2016-07-12T21:11:11.657Z,42.19
2016-07-12T21:12:11.683Z,41.8
2016-07-12T21:13:11.665Z,41.8
2016-07-12T21:14:11.673Z,42.1
2016-07-12T21:15:11.684Z,42
2016-07-12T21:16:11.688Z,42.68
2016-07-12T21:17:11.694Z,42.78
2016-07-12T21:18:11.703Z,42.58
2016-07-12T21:19:11.713Z,42.29
2016-07-12T21:20:11.737Z,42.68
2016-07-12T21:21:11.703Z,41.8
2016-07-12T21:22:11.725Z,42.19
2016-07-12T21:23:11.764Z,42.68
2016-07-12T21:24:11.751Z,42.68
2016-07-12T21:25:11.782Z,42.58
2016-07-12T21:26:11.766Z,42.78
2016-07-12T21:27:12.511Z,42.87
2016-07-12T21:28:11.788Z,42.87
2016-07-12T21:29:11.795Z,42.58
2016-07-12T21:30:11.797Z,43.36
2016-07-12T21:31:11.786Z,43.24
2016-07-12T21:32:11.815Z,43.05
2016-07-12T21:33:11.820Z,43.05
2016-07-12T21:34:12.548Z,43.05
2016-07-12T21:35:12.035Z,43.26
2016-07-12T21:36:11.822Z,43.36
2016-07-12T21:37:12.594Z,43.54
2016-07-12T21:38:11.884Z,43.26
2016-07-12T21:39:11.846Z,43.16
2016-07-12T21:40:11.899Z,42.78
2016-07-12T21:41:11.916Z,43.26
2016-07-12T21:42:11.871Z,42.97
2016-07-12T21:43:11.907Z,43.16
2016-07-12T21:44:11.885Z,43.36
2016-07-12T21:45:11.918Z,43.75
2016-07-12T21:46:16.436Z,43.92
2016-07-12T21:47:11.939Z,43.63
2016-07-12T21:48:11.879Z,43.36
2016-07-12T21:49:12.068Z,43.26
2016-07-12T21:50:12.673Z,43.26
2016-07-12T21:51:12.437Z,42.97
2016-07-12T21:52:11.952Z,43.34
2016-07-12T21:53:12.885Z,43.46
2016-07-12T21:54:12.100Z,43.73
2016-07-12T21:55:12.017Z,44.02
2016-07-12T21:56:12.005Z,43.92
2016-07-12T21:57:12.014Z,44.02
2016-07-12T21:58:12.024Z,43.82
2016-07-12T21:59:12.027Z,44.12
2016-07-12T22:00:11.968Z,44.21
2016-07-12T22:01:12.044Z,44.21
2016-07-12T22:02:12.791Z,44.02
2016-07-12T22:03:12.062Z,44.02
2016-07-12T22:04:12.089Z,44.02
2016-07-12T22:05:12.102Z,45.01
2016-07-12T22:06:12.082Z,44.7
2016-07-12T22:07:12.093Z,44.41
2016-07-12T22:08:12.085Z,44.7
2016-07-12T22:09:12.110Z,44.51
2016-07-12T22:10:12.817Z,44.68
2016-07-12T22:11:12.502Z,44.51
2016-07-12T22:12:12.154Z,44.41
2016-07-12T22:13:12.144Z,44.7
2016-07-12T22:14:12.138Z,44.41
2016-07-12T22:15:12.169Z,44.99
2016-07-12T22:16:12.146Z,44.12
2016-07-12T22:17:12.972Z,44.7
2016-07-12T22:18:12.202Z,45.18
2016-07-12T22:19:12.169Z,45.55
2016-07-12T22:20:12.202Z,45.55
2016-07-12T22:21:12.205Z,45.84
2016-07-12T22:22:12.236Z,46.04
2016-07-12T22:23:12.221Z,46.04
2016-07-12T22:24:12.231Z,45.75
2016-07-12T22:25:12.239Z,45.55
2016-07-12T22:26:12.548Z,45.55
2016-07-12T22:27:12.236Z,45.45
2016-07-12T22:28:12.259Z,45.94
2016-07-12T22:29:15.934Z,45.94
2016-07-12T22:30:12.278Z,45.75
2016-07-12T22:31:12.306Z,45.94
2016-07-12T22:32:12.347Z,45.65
2016-07-12T22:33:12.279Z,45.65
2016-07-12T22:34:12.197Z,45.84
2016-07-12T22:35:12.291Z,45.55
2016-07-12T22:36:12.866Z,46.33
2016-07-12T22:37:12.362Z,46.23
2016-07-12T22:38:12.320Z,46.23
2016-07-12T22:39:12.381Z,46.14
2016-07-12T22:40:12.356Z,46.23
2016-07-12T22:41:12.383Z,46.42
2016-07-12T22:42:12.557Z,46.72
2016-07-12T22:43:12.352Z,46.41
2016-07-12T22:44:12.529Z,46.79
2016-07-12T22:45:12.292Z,46.79
2016-07-12T22:46:12.401Z,46.79
2016-07-12T22:47:13.093Z,46.79
2016-07-12T22:48:12.422Z,47.08
2016-07-12T22:49:12.418Z,46.98
2016-07-12T22:50:27.141Z,46.5
2016-07-12T22:51:12.443Z,47.18
2016-07-12T22:52:12.415Z,46.6
2016-07-12T22:53:12.466Z,46.89
2016-07-12T22:54:12.487Z,46.89
2016-07-12T22:55:12.466Z,46.89
2016-07-12T22:57:12.483Z,47.4
2016-07-12T22:58:12.469Z,47.08
2016-07-12T22:59:12.501Z,47.57
2016-07-12T23:00:12.485Z,47.86
2016-07-12T23:01:12.535Z,47.86
2016-07-12T23:02:12.498Z,47.38
2016-07-12T23:03:12.554Z,47.57
2016-07-12T23:04:12.560Z,47.47
2016-07-12T23:05:12.547Z,47.86
2016-07-12T23:06:12.530Z,47.76
2016-07-12T23:07:12.562Z,47.66
2016-07-12T23:08:13.558Z,47.57
2016-07-12T23:09:13.998Z,47.96
2016-07-12T23:10:12.851Z,47.96
2016-07-12T23:11:15.789Z,47.96
2016-07-12T23:12:12.577Z,48.54
2016-07-12T23:13:12.587Z,48.64
2016-07-12T23:14:12.635Z,48.73
2016-07-12T23:15:12.617Z,48.44
2016-07-12T23:16:12.629Z,48.73
2016-07-12T23:17:12.658Z,48.83
2016-07-12T23:18:13.844Z,48.44
2016-07-12T23:19:12.650Z,48.64
2016-07-12T23:20:12.678Z,48.54
2016-07-12T23:21:12.678Z,48.64
2016-07-12T23:22:12.672Z,48.54
2016-07-12T23:23:12.680Z,48.54
2016-07-12T23:24:12.691Z,48.54
2016-07-12T23:25:12.684Z,48.35
2016-07-12T23:26:12.701Z,48.83
2016-07-12T23:27:12.709Z,48.73
2016-07-12T23:28:12.720Z,48.83
2016-07-12T23:29:12.680Z,48.73
2016-07-12T23:30:12.778Z,48.93
2016-07-12T23:31:12.810Z,49.02
2016-07-12T23:32:12.732Z,49.12
2016-07-12T23:34:12.759Z,48.93
2016-07-12T23:35:12.773Z,48.93
2016-07-12T23:36:28.791Z,49.8
2016-07-12T23:37:17.414Z,50.26
2016-07-12T23:38:16.517Z,50.74
2016-07-12T23:39:14.535Z,51.31
2016-07-12T23:40:17.193Z,51.21
2016-07-12T23:41:12.815Z,51.98
2016-07-12T23:42:12.823Z,51.31
2016-07-12T23:43:13.577Z,50.82
2016-07-12T23:44:12.911Z,51.21
2016-07-12T23:45:13.497Z,50.24
2016-07-12T23:46:15.797Z,50.72
2016-07-12T23:47:12.859Z,50.82
2016-07-12T23:48:23.899Z,50.53
2016-07-12T23:49:12.849Z,50.56
2016-07-12T23:50:12.879Z,50.46
2016-07-12T23:51:12.865Z,50.36
2016-07-12T23:52:12.888Z,51.14
2016-07-12T23:53:12.902Z,53.47
2016-07-12T23:54:12.789Z,52.98
2016-07-12T23:55:12.939Z,53.85
2016-07-12T23:56:13.831Z,53.88
2016-07-12T23:57:12.955Z,53.97
2016-07-12T23:58:12.962Z,53.1
2016-07-12T23:59:12.923Z,52.42
